Time;durP1;ratioP1;P1;durP2;ratioP2;P2;SDS_P1;SDS_P2;PMS_P1;PMS_P2;Temp;Humidity;BMP_temperature;BMP_pressure;BME280_temperature;BME280_humidity;BME280_pressure;Samples;Min_cycle;Max_cycle;Signal;HPM_P1;HPM_P2
2021/12/11 00:02:30;;;;;;;7.53;4.30;;;;;;;15.95;49.61;94184.13;10459844;28;20045;-83
2021/12/11 00:07:31;;;;;;;5.80;4.38;;;;;;;15.95;49.77;94182.31;10459974;28;20040;-84
2021/12/11 00:12:40;;;;;;;5.78;3.88;;;;;;;15.95;49.32;94195.34;10441574;28;20048;-83
2021/12/11 00:17:42;;;;;;;6.88;4.22;;;;;;;15.94;49.67;94205.97;10458480;28;20494;-83
2021/12/11 00:22:45;;;;;;;5.88;4.22;;;;;;;15.93;49.60;94204.38;10441080;28;20056;-83
2021/12/11 00:28:01;;;;;;;6.93;4.10;;;;;;;15.94;49.39;94219.00;10441203;28;20449;-83
2021/12/11 00:33:14;;;;;;;9.82;4.18;;;;;;;15.93;49.55;94220.00;10440945;28;20053;-84
2021/12/11 00:38:20;;;;;;;6.07;3.90;;;;;;;15.93;49.48;94235.63;10458514;28;20049;-83
2021/12/11 00:43:28;;;;;;;6.65;3.92;;;;;;;15.92;49.55;94241.84;10458014;28;20487;-84
2021/12/11 00:48:31;;;;;;;4.47;3.47;;;;;;;15.92;49.54;94249.66;10457046;28;20052;-84
2021/12/11 00:53:38;;;;;;;7.18;3.47;;;;;;;15.92;49.75;94260.06;10457985;28;20037;-84
2021/12/11 00:58:41;;;;;;;6.57;3.65;;;;;;;15.92;49.48;94275.66;10439558;28;20060;-83
2021/12/11 01:03:53;;;;;;;7.95;3.60;;;;;;;15.92;49.52;94286.06;10439525;28;20048;-84
2021/12/11 01:09:01;;;;;;;4.72;3.33;;;;;;;15.90;49.53;94288.13;10457471;28;20044;-83
2021/12/11 01:14:14;;;;;;;4.50;3.35;;;;;;;15.89;49.60;94308.16;10457042;28;20041;-84
2021/12/11 01:19:18;;;;;;;6.07;3.67;;;;;;;15.89;49.49;94308.16;10438067;28;20055;-84
2021/12/11 01:24:28;;;;;;;3.72;2.97;;;;;;;15.90;49.38;94322.72;10456769;28;20044;-84
2021/12/11 01:29:33;;;;;;;4.80;3.10;;;;;;;15.90;49.34;94322.72;10438328;28;20106;-84
2021/12/11 01:34:35;;;;;;;4.75;3.53;;;;;;;15.92;49.65;94332.91;10456338;28;20045;-84
2021/12/11 01:39:39;;;;;;;5.07;3.40;;;;;;;15.90;49.31;94335.75;10455821;28;20505;-83
2021/12/11 01:44:42;;;;;;;4.53;3.17;;;;;;;15.91;49.58;94346.97;10421806;28;20051;-84
2021/12/11 01:49:47;;;;;;;3.75;3.00;;;;;;;15.89;49.49;94352.41;10437435;28;20044;-83
2021/12/11 01:54:49;;;;;;;3.92;3.22;;;;;;;15.90;49.40;94356.56;10438311;28;20049;-84
2021/12/11 01:59:58;;;;;;;4.45;3.20;;;;;;;15.90;49.58;94366.19;10455247;28;20460;-84
2021/12/11 02:05:01;;;;;;;5.13;3.20;;;;;;;15.90;49.27;94371.41;10454998;28;20047;-84
2021/12/11 02:10:10;;;;;;;4.13;2.90;;;;;;;15.89;49.30;94373.22;10455063;28;20044;-84
2021/12/11 02:15:20;;;;;;;3.35;2.83;;;;;;;15.90;49.37;94377.38;10454732;28;20343;-84
2021/12/11 02:20:37;;;;;;;5.22;3.33;;;;;;;15.89;49.35;94378.41;10420332;28;20040;-84
2021/12/11 02:25:44;;;;;;;4.30;3.28;;;;;;;15.87;49.49;94375.25;10417110;28;20060;-84
2021/12/11 02:30:49;;;;;;;3.83;3.03;;;;;;;15.87;49.31;94387.47;10436576;28;20040;-84
2021/12/11 02:36:10;;;;;;;3.80;3.00;;;;;;;15.85;49.42;94387.69;10436361;28;20482;-84
2021/12/11 02:41:24;;;;;;;3.70;2.92;;;;;;;15.86;49.57;94404.91;10453570;28;20052;-84
2021/12/11 02:46:35;;;;;;;2.92;2.47;;;;;;;15.86;49.36;94412.69;10436254;28;20045;-84
2021/12/11 02:51:42;;;;;;;3.22;2.60;;;;;;;15.85;49.71;94415.53;10432714;28;20044;-84
2021/12/11 02:56:52;;;;;;;3.10;2.60;;;;;;;15.84;49.46;94425.13;10453565;28;20063;-84
2021/12/11 03:02:01;;;;;;;4.78;2.78;;;;;;;15.84;49.43;94429.56;10470646;28;20095;-84
2021/12/11 03:07:07;;;;;;;3.22;2.47;;;;;;;15.85;49.21;94436.34;10493621;28;20044;-84
2021/12/11 03:12:11;;;;;;;3.10;2.60;;;;;;;15.83;49.50;94443.56;10502421;28;20343;-84
2021/12/11 03:17:15;;;;;;;2.90;2.60;;;;;;;15.84;49.22;94450.38;10501919;28;20052;-85
2021/12/11 03:22:20;;;;;;;2.80;2.47;;;;;;;15.84;49.44;94448.56;10501375;28;20048;-84
2021/12/11 03:27:23;;;;;;;3.42;2.40;;;;;;;15.84;49.47;94461.56;10501750;28;20051;-85
2021/12/11 03:32:24;;;;;;;2.97;2.40;;;;;;;15.83;49.20;94473.00;10502766;28;20094;-85
2021/12/11 03:37:27;;;;;;;2.75;2.35;;;;;;;15.84;49.61;94482.38;10502253;28;20047;-85
2021/12/11 03:42:36;;;;;;;2.67;2.20;;;;;;;15.85;48.96;94485.78;10501116;28;20044;-85
2021/12/11 03:47:42;;;;;;;3.65;2.55;;;;;;;15.84;49.07;94497.19;10502140;28;20083;-85
2021/12/11 03:52:47;;;;;;;2.97;2.47;;;;;;;15.84;49.58;94505.78;10501931;28;20044;-85
2021/12/11 03:57:55;;;;;;;2.40;2.20;;;;;;;15.82;49.32;94507.84;10501082;28;20409;-84
2021/12/11 04:03:03;;;;;;;2.67;2.17;;;;;;;15.82;48.92;94517.47;10499789;28;20052;-85
2021/12/11 04:08:07;;;;;;;2.60;2.35;;;;;;;15.81;49.08;94519.25;10499809;28;20050;-85
2021/12/11 04:13:09;;;;;;;3.17;2.20;;;;;;;15.82;49.13;94523.44;10500142;28;20041;-85
2021/12/11 04:18:12;;;;;;;2.90;2.30;;;;;;;15.80;49.28;94532.53;10499995;28;20131;-84
2021/12/11 04:23:14;;;;;;;3.70;2.10;;;;;;;15.81;49.23;94545.28;10497880;28;20048;-84
2021/12/11 04:28:20;;;;;;;2.47;2.22;;;;;;;15.80;49.28;94548.13;10499585;28;20048;-84
2021/12/11 04:33:22;;;;;;;2.70;2.08;;;;;;;15.80;49.28;94561.13;10499472;28;20044;-84
2021/12/11 04:38:24;;;;;;;2.33;2.00;;;;;;;15.78;49.41;94556.94;10498694;28;20052;-84
2021/12/11 04:43:26;;;;;;;2.00;1.80;;;;;;;15.79;49.38;94568.13;10500576;28;20033;-85
2021/12/11 04:48:39;;;;;;;2.60;1.88;;;;;;;15.80;49.32;94584.56;10498412;28;20445;-85
2021/12/11 04:54:22;;;;;;;2.00;1.85;;;;;;;15.77;49.23;94578.75;10499556;28;20115;-84
2021/12/11 04:59:52;;;;;;;1.90;1.70;;;;;;;15.77;49.54;94591.78;10492572;28;20056;-84
2021/12/11 05:10:23;;;;;;;2.13;1.80;;;;;;;15.76;49.05;94608.41;10382202;28;20514;-85
2021/12/11 05:15:36;;;;;;;2.50;2.00;;;;;;;15.76;49.42;94612.78;10457464;28;20045;-85
2021/12/11 05:20:40;;;;;;;1.83;1.52;;;;;;;15.75;49.30;94624.22;10457226;28;20563;-84
2021/12/11 05:25:42;;;;;;;2.13;1.77;;;;;;;15.75;49.44;94635.41;10439317;28;20041;-84
2021/12/11 05:30:47;;;;;;;2.40;2.00;;;;;;;15.74;49.30;94640.84;10438489;28;20052;-84
2021/12/11 05:35:50;;;;;;;2.00;1.63;;;;;;;15.74;49.44;94653.84;10456358;28;20041;-85
2021/12/11 05:41:00;;;;;;;1.60;1.50;;;;;;;15.73;49.49;94658.28;10422188;28;20513;-84
2021/12/11 05:46:04;;;;;;;1.77;1.65;;;;;;;15.73;49.34;94653.06;10437884;28;20132;-84
2021/12/11 05:51:08;;;;;;;2.17;1.80;;;;;;;15.72;49.18;94664.47;10455920;28;20440;-84
2021/12/11 05:56:12;;;;;;;2.10;1.80;;;;;;;15.71;49.60;94670.69;10455461;28;20052;-85
2021/12/11 06:01:36;;;;;;;2.05;1.60;;;;;;;15.73;49.78;94667.84;10437425;28;20049;-83
2021/12/11 06:06:40;;;;;;;1.70;1.58;;;;;;;15.71;49.44;94672.50;10453521;28;20037;-84
2021/12/11 06:11:44;;;;;;;3.17;1.50;;;;;;;15.71;51.16;94680.31;10454427;28;20068;-75
2021/12/11 06:16:48;;;;;;;6.47;1.88;;;;;;;15.73;50.96;94691.28;10453564;28;20470;-77
2021/12/11 06:21:50;;;;;;;11.80;2.20;;;;;;;15.76;51.34;94701.25;10437238;28;20170;-83
2021/12/11 06:26:53;;;;;;;7.40;1.70;;;;;;;15.75;51.83;94708.25;10454719;28;20049;-73
2021/12/11 06:31:56;;;;;;;14.48;1.90;;;;;;;15.80;51.43;94723.25;10454803;28;20151;-77
2021/12/11 06:36:58;;;;;;;22.55;2.03;;;;;;;15.81;52.83;94737.03;10436461;28;20483;-84
2021/12/11 06:42:02;;;;;;;7.97;1.75;;;;;;;15.83;52.32;94745.41;10415365;28;20137;-78
2021/12/11 06:47:07;;;;;;;12.20;2.28;;;;;;;15.85;53.19;94759.00;10433539;28;20045;-77
2021/12/11 06:52:17;;;;;;;12.95;2.75;;;;;;;15.88;53.92;94769.75;10452480;28;20040;-78
2021/12/11 06:57:19;;;;;;;11.38;1.75;;;;;;;15.92;52.52;94772.69;10452748;28;20110;-78
2021/12/11 07:02:21;;;;;;;12.75;2.25;;;;;;;15.93;52.88;94785.50;10449373;28;20056;-86
2021/12/11 07:07:26;;;;;;;10.88;1.50;;;;;;;15.95;52.67;94787.88;10418796;28;20103;-81
2021/12/11 07:12:28;;;;;;;14.45;1.80;;;;;;;15.99;53.14;94806.44;10434104;28;20041;-80
2021/12/11 07:17:30;;;;;;;13.85;2.30;;;;;;;15.99;53.18;94829.88;10437363;28;20536;-78
2021/12/11 07:22:31;;;;;;;17.00;1.63;;;;;;;16.02;53.09;94832.03;10451841;28;20037;-79
2021/12/11 07:27:34;;;;;;;21.10;2.17;;;;;;;16.05;53.11;94845.41;10451832;28;20110;-78
2021/12/11 07:32:37;;;;;;;17.25;2.80;;;;;;;16.06;53.10;94862.59;10452018;28;20450;-78
2021/12/11 07:37:39;;;;;;;16.63;2.17;;;;;;;16.06;53.11;94875.63;10419166;28;20111;-78
2021/12/11 07:42:41;;;;;;;10.50;2.03;;;;;;;16.09;53.67;94874.41;10448558;28;20034;-76
2021/12/11 07:47:42;;;;;;;15.15;1.90;;;;;;;16.14;53.18;94893.53;10423844;28;20426;-77
2021/12/11 07:52:45;;;;;;;31.00;2.33;;;;;;;16.13;53.00;94920.59;10452780;28;20057;-79
2021/12/11 07:57:47;;;;;;;27.45;3.03;;;;;;;16.16;52.97;94937.56;10443138;28;20041;-83
2021/12/11 08:02:50;;;;;;;17.17;2.20;;;;;;;16.16;53.20;94952.41;10493641;28;20048;-87
2021/12/11 08:07:52;;;;;;;30.70;2.90;;;;;;;16.21;52.92;94947.34;10502137;28;20552;-83
2021/12/11 08:12:54;;;;;;;20.65;2.38;;;;;;;16.23;52.29;94969.53;10475429;28;20037;-79
2021/12/11 08:17:57;;;;;;;20.08;2.50;;;;;;;16.26;52.44;94973.53;10494407;28;20078;-74
2021/12/11 08:23:00;;;;;;;15.38;2.13;;;;;;;16.28;52.48;94977.50;10500599;28;20052;-75
2021/12/11 08:28:03;;;;;;;22.88;2.42;;;;;;;16.32;52.80;94988.25;10483486;28;20106;-78
2021/12/11 08:33:05;;;;;;;21.08;2.28;;;;;;;16.32;52.59;94996.88;10500234;28;20036;-77
2021/12/11 08:38:07;;;;;;;20.80;2.33;;;;;;;16.34;51.97;95014.91;10486121;28;20048;-88
2021/12/11 08:43:12;;;;;;;17.77;2.35;;;;;;;16.36;51.91;95023.28;10471716;28;20070;-86
2021/12/11 08:48:18;;;;;;;12.80;2.25;;;;;;;16.35;52.32;95039.13;10502512;28;20048;-86
2021/12/11 08:53:20;;;;;;;22.25;2.58;;;;;;;16.32;52.04;95051.56;10499898;28;20048;-86
2021/12/11 08:58:24;;;;;;;26.70;3.58;;;;;;;16.32;51.85;95059.38;10498730;28;20374;-86
2021/12/11 09:03:41;;;;;;;19.10;2.28;;;;;;;16.32;51.44;95071.59;10442113;28;20124;-86
2021/12/11 09:09:12;;;;;;;15.63;2.50;;;;;;;16.32;51.36;95074.19;10441849;28;20048;-85
2021/12/11 09:14:32;;;;;;;9.80;1.73;;;;;;;16.33;51.30;95084.41;10451290;28;20384;-86
2021/12/11 09:19:43;;;;;;;11.93;2.03;;;;;;;16.32;51.12;95105.44;10458644;28;20049;-85
2021/12/11 09:24:54;;;;;;;14.27;1.70;;;;;;;16.31;50.77;95117.69;10458508;28;20091;-85
2021/12/11 09:30:08;;;;;;;16.33;2.28;;;;;;;16.31;50.54;95122.09;10424491;28;20052;-85
2021/12/11 09:35:23;;;;;;;11.70;1.80;;;;;;;16.31;50.48;95133.31;10458304;28;20045;-86
2021/12/11 09:40:34;;;;;;;9.45;1.58;;;;;;;16.30;50.58;95146.53;10423929;28;20562;-86
2021/12/11 09:45:44;;;;;;;14.52;1.98;;;;;;;16.30;50.28;95151.75;10423416;28;20041;-86
2021/12/11 09:50:57;;;;;;;8.13;1.67;;;;;;;16.30;50.20;95149.97;10457713;28;20041;-86
2021/12/11 09:56:00;;;;;;;6.47;1.40;;;;;;;16.34;50.06;95155.53;10423171;28;20041;-84
2021/12/11 10:01:13;;;;;;;7.07;1.67;;;;;;;16.37;50.04;95164.69;10456648;28;20052;-86
2021/12/11 10:12:07;;;;;;;4.15;1.48;;;;;;;16.44;49.66;95166.22;10426323;28;20428;-86
2021/12/11 10:17:22;;;;;;;2.67;1.30;;;;;;;16.50;49.33;95175.00;10455986;28;20378;-85
2021/12/11 10:22:35;;;;;;;9.02;1.58;;;;;;;16.49;49.13;95184.63;10438982;28;20037;-86
2021/12/11 10:27:37;;;;;;;5.75;1.58;;;;;;;16.54;48.98;95196.22;10456497;28;20033;-86
2021/12/11 10:32:40;;;;;;;4.80;1.70;;;;;;;16.57;49.09;95201.00;10456056;28;20047;-88
2021/12/11 10:37:42;;;;;;;6.60;1.75;;;;;;;16.57;48.96;95216.63;10455882;28;20049;-85
2021/12/11 10:42:50;;;;;;;3.95;1.50;;;;;;;16.54;48.92;95223.06;10456555;28;20045;-87
2021/12/11 10:47:57;;;;;;;4.75;1.52;;;;;;;16.54;48.84;95230.06;10422787;28;20410;-86
2021/12/11 10:52:59;;;;;;;9.65;1.95;;;;;;;16.50;48.76;95234.94;10405281;28;20057;-85
2021/12/11 10:58:06;;;;;;;3.25;1.60;;;;;;;16.46;48.92;95249.38;10437827;28;20562;-87
2021/12/11 11:03:08;;;;;;;5.38;1.75;;;;;;;16.45;49.02;95258.22;10455345;28;20064;-86
2021/12/11 11:08:10;;;;;;;4.90;1.67;;;;;;;16.43;48.87;95271.47;10455320;28;20033;-87
2021/12/11 11:13:15;;;;;;;2.30;1.65;;;;;;;16.42;48.96;95285.47;10455116;28;20376;-88
2021/12/11 11:18:19;;;;;;;3.17;1.60;;;;;;;16.41;48.99;95288.31;10454989;28;20098;-86
2021/12/11 11:23:22;;;;;;;3.70;1.85;;;;;;;16.39;48.71;95292.94;10455125;28;20403;-87
2021/12/11 11:28:26;;;;;;;3.03;1.80;;;;;;;16.38;48.68;95304.34;10422025;28;20040;-88
2021/12/11 11:33:29;;;;;;;3.95;1.85;;;;;;;16.38;48.73;95312.94;10445487;28;20475;-84
2021/12/11 11:38:43;;;;;;;5.07;2.00;;;;;;;16.36;48.78;95314.19;10446364;28;20151;-85
2021/12/11 11:43:46;;;;;;;4.43;2.17;;;;;;;16.39;48.86;95313.78;10445333;28;20064;-85
2021/12/11 11:49:02;;;;;;;4.80;2.05;;;;;;;16.41;48.54;95332.59;10462607;28;20068;-83
2021/12/11 11:54:12;;;;;;;4.57;2.22;;;;;;;16.38;48.62;95344.22;10444442;28;20064;-87
2021/12/11 11:59:14;;;;;;;4.22;2.15;;;;;;;16.40;48.78;95344.00;10444588;28;20060;-84
2021/12/11 12:04:20;;;;;;;3.28;1.90;;;;;;;16.40;48.44;95350.03;10462424;28;20056;-87
2021/12/11 12:09:23;;;;;;;5.35;2.80;;;;;;;16.42;48.31;95352.44;10462168;28;20037;-86
2021/12/11 12:14:30;;;;;;;2.50;2.15;;;;;;;16.47;48.37;95365.59;10462109;28;20053;-85
2021/12/11 12:19:32;;;;;;;2.87;2.23;;;;;;;16.45;48.22;95370.25;10461443;28;20399;-87
2021/12/11 12:24:38;;;;;;;5.30;2.58;;;;;;;16.45;48.30;95386.66;10443024;28;20045;-85
2021/12/11 12:29:41;;;;;;;3.00;2.40;;;;;;;16.46;48.00;95383.06;10460831;28;20047;-88
2021/12/11 12:34:44;;;;;;;3.38;2.65;;;;;;;16.48;48.14;95385.41;10460757;28;20048;-87
2021/12/11 12:40:01;;;;;;;4.20;2.83;;;;;;;16.46;47.95;95396.06;10460245;28;20045;-86
2021/12/11 12:45:15;;;;;;;4.00;2.85;;;;;;;16.43;48.27;95393.91;10426875;28;20060;-86
2021/12/11 12:51:04;;;;;;;;;;;;;;;;;;;;;
2021/12/11 12:56:14;;;;;;;3.97;2.92;;;;;;;16.40;48.30;95414.34;10424429;28;20045;-87
2021/12/11 13:01:41;;;;;;;6.00;3.55;;;;;;;16.40;48.15;95424.75;10444784;28;20059;-85
2021/12/11 13:06:55;;;;;;;3.70;3.00;;;;;;;16.40;48.18;95441.19;10442569;28;20438;-87
2021/12/11 13:12:15;;;;;;;4.70;3.38;;;;;;;16.41;48.17;95452.41;10442825;28;20049;-86
2021/12/11 13:17:33;;;;;;;3.40;2.92;;;;;;;16.41;47.99;95468.03;10425889;28;20052;-87
2021/12/11 13:22:41;;;;;;;4.88;3.47;;;;;;;16.38;48.22;95478.88;10443591;28;20072;-87
2021/12/11 13:27:43;;;;;;;4.20;3.60;;;;;;;16.36;48.33;95489.50;10441326;28;20045;-87
2021/12/11 13:32:48;;;;;;;4.28;3.25;;;;;;;16.33;48.12;95495.91;10441825;28;20052;-87
2021/12/11 13:37:53;;;;;;;4.80;3.78;;;;;;;16.32;48.42;95501.31;10473787;28;20045;-86
2021/12/11 13:42:57;;;;;;;4.32;3.33;;;;;;;16.30;47.97;95518.97;10460495;28;20096;-86
2021/12/11 13:48:10;;;;;;;18.73;4.32;;;;;;;16.34;49.07;95525.38;10441835;28;20487;-83
2021/12/11 13:53:20;;;;;;;42.25;5.68;;;;;;;16.37;50.88;95538.00;10440463;28;20065;-90
2021/12/11 13:58:25;;;;;;;17.17;5.10;;;;;;;16.38;50.99;95542.16;10440277;28;20049;-86
2021/12/11 14:03:36;;;;;;;24.05;5.38;;;;;;;16.38;51.79;95550.00;10497247;28;20139;-88
2021/12/11 14:08:43;;;;;;;13.63;5.10;;;;;;;16.39;52.21;95561.22;10497567;28;20079;-87
2021/12/11 14:13:44;;;;;;;20.70;5.20;;;;;;;16.30;58.80;95565.84;10498421;28;20045;-88
2021/12/11 14:18:47;;;;;;;15.32;5.22;;;;;;;16.33;53.12;95575.84;10497905;28;20048;-86
2021/12/11 14:23:50;;;;;;;16.85;5.53;;;;;;;16.27;51.83;95590.50;10495030;28;20044;-79
2021/12/11 14:28:55;;;;;;;26.77;5.18;;;;;;;16.23;51.71;95598.94;10473910;28;20048;-77
2021/12/11 14:34:01;;;;;;;20.02;4.93;;;;;;;16.30;52.59;95607.53;10455487;28;20509;-80
2021/12/11 14:39:13;;;;;;;22.65;5.13;;;;;;;16.27;52.22;95613.97;10470854;28;20041;-85
2021/12/11 14:44:22;;;;;;;17.48;5.63;;;;;;;16.25;52.26;95628.16;10484685;28;20094;-76
2021/12/11 14:49:26;;;;;;;19.95;5.00;;;;;;;16.22;52.43;95636.38;10496621;28;20044;-75
2021/12/11 14:54:28;;;;;;;31.42;5.47;;;;;;;16.20;53.14;95638.41;10496179;28;20111;-76
2021/12/11 14:59:43;;;;;;;40.22;5.63;;;;;;;16.19;53.10;95642.78;10486132;28;20462;-74
2021/12/11 15:04:49;;;;;;;32.63;5.68;;;;;;;16.18;53.25;95649.03;10420319;28;20041;-74
2021/12/11 15:09:53;;;;;;;31.92;6.53;;;;;;;16.18;52.57;95663.81;10454876;28;20045;-83
2021/12/11 15:15:01;;;;;;;35.50;5.60;;;;;;;16.14;52.46;95679.84;10435870;28;20049;-77
2021/12/11 15:20:28;;;;;;;33.30;6.63;;;;;;;16.10;52.04;95683.88;10450800;28;20056;-78
2021/12/11 15:25:35;;;;;;;42.47;5.65;;;;;;;16.08;52.25;95698.91;10451254;28;20072;-76
2021/12/11 15:31:07;;;;;;;21.55;6.20;;;;;;;16.04;52.41;95700.28;10451566;28;20044;-76
2021/12/11 15:36:18;;;;;;;32.05;5.97;;;;;;;16.00;52.80;95698.28;10442395;28;20045;-76
2021/12/11 15:41:22;;;;;;;21.65;6.13;;;;;;;15.96;52.65;95711.69;10454001;28;20048;-76
2021/12/11 15:46:25;;;;;;;17.55;6.00;;;;;;;15.94;52.66;95720.72;10453596;28;20056;-77
2021/12/11 15:51:32;;;;;;;30.45;6.45;;;;;;;15.97;54.79;95730.72;10450119;28;20072;-77
2021/12/11 15:56:35;;;;;;;;;;;;;;;15.99;55.59;95746.13;10435552;28;20064;-79
2021/12/11 16:01:50;;;;;;;35.75;7.63;;;;;;;16.00;55.43;95748.53;10453073;28;19928;-75
2021/12/11 16:07:03;;;;;;;34.15;7.90;;;;;;;16.02;55.82;95761.38;10453411;28;20037;-78
2021/12/11 16:12:17;;;;;;;25.08;7.78;;;;;;;16.01;55.55;95772.78;10423772;28;20406;-87
2021/12/11 16:17:33;;;;;;;31.45;7.57;;;;;;;16.01;55.13;95781.41;10405095;28;20049;-81
2021/12/11 16:22:39;;;;;;;28.33;7.00;;;;;;;15.99;55.07;95779.97;10421904;28;20570;-87
2021/12/11 16:27:48;;;;;;;19.35;7.32;;;;;;;15.95;54.66;95797.81;10442749;28;20071;-87
2021/12/11 16:32:51;;;;;;;24.38;6.85;;;;;;;15.94;55.08;95804.81;10442432;28;20040;-92
2021/12/11 16:38:03;;;;;;;25.45;8.23;;;;;;;15.95;57.65;95810.81;10460386;28;20051;-88
2021/12/11 16:43:23;;;;;;;30.30;8.88;;;;;;;15.94;56.82;95820.44;10457606;28;20132;-88
2021/12/11 16:48:28;;;;;;;19.25;7.40;;;;;;;15.95;56.30;95834.25;10445162;28;20048;-85
2021/12/11 16:53:38;;;;;;;29.40;7.77;;;;;;;15.92;56.32;95837.25;10434886;28;20494;-84
2021/12/11 16:58:43;;;;;;;20.30;6.95;;;;;;;15.92;56.47;95847.66;10458041;28;20716;-81
2021/12/11 17:03:46;;;;;;;28.67;7.45;;;;;;;15.92;56.33;95856.28;10458245;28;20044;-84
2021/12/11 17:08:49;;;;;;;35.42;7.85;;;;;;;15.88;56.28;95856.88;10440425;28;20039;-82
2021/12/11 17:13:53;;;;;;;38.08;7.45;;;;;;;15.92;56.55;95871.09;10423147;28;20127;-87
2021/12/11 17:18:59;;;;;;;30.65;7.00;;;;;;;15.94;55.80;95874.31;10457167;28;20058;-82
2021/12/11 17:24:02;;;;;;;30.35;7.03;;;;;;;15.92;56.07;95891.91;10457896;28;20106;-85
2021/12/11 17:29:11;;;;;;;40.38;7.47;;;;;;;15.89;56.10;95895.72;10439389;28;20483;-82
2021/12/11 17:34:17;;;;;;;31.33;7.40;;;;;;;15.96;56.80;95900.94;10457882;28;20060;-77
2021/12/11 17:39:21;;;;;;;28.63;7.50;;;;;;;15.99;56.43;95905.75;10457379;28;20495;-77
2021/12/11 17:44:23;;;;;;;36.95;8.43;;;;;;;16.04;57.94;95913.00;10438842;28;20045;-75
2021/12/11 17:49:25;;;;;;;33.13;7.57;;;;;;;16.04;58.00;95920.81;10437401;28;20037;-73
2021/12/11 17:54:32;;;;;;;32.17;7.72;;;;;;;16.05;57.85;95925.81;10437422;28;20047;-78
2021/12/11 17:59:34;;;;;;;28.52;7.97;;;;;;;16.04;58.36;95933.81;10455685;28;20056;-77
2021/12/11 18:04:42;;;;;;;28.00;7.13;;;;;;;16.00;58.66;95945.63;10455075;28;20068;-75
2021/12/11 18:09:48;;;;;;;30.05;7.47;;;;;;;16.02;58.31;95954.03;10436287;28;20067;-87
2021/12/11 18:15:12;;;;;;;30.38;8.10;;;;;;;16.27;58.12;95967.34;10424022;28;20073;-80
2021/12/11 18:20:28;;;;;;;31.38;7.43;;;;;;;16.50;56.77;95970.44;10437753;28;20060;-79
2021/12/11 18:25:52;;;;;;;28.42;7.20;;;;;;;16.78;56.09;95972.13;10435036;28;20049;-76
2021/12/11 18:31:00;;;;;;;19.33;8.07;;;;;;;16.80;55.03;95977.13;10455179;28;20045;-79
2021/12/11 18:36:08;;;;;;;;;;;;;;;16.91;54.98;95973.16;10437658;28;20033;-76
2021/12/11 18:41:15;;;;;;;19.30;8.10;;;;;;;16.97;44.33;95974.97;10453195;28;19990;-72
2021/12/11 18:46:21;;;;;;;14.98;8.40;;;;;;;16.59;38.53;95972.84;10454613;28;20037;-88
2021/12/11 18:51:26;;;;;;;14.48;8.10;;;;;;;15.92;35.97;95981.25;10454760;28;20037;-88
2021/12/11 18:56:30;;;;;;;12.90;8.07;;;;;;;15.30;38.48;95995.00;10452829;28;20087;-87
2021/12/11 19:01:43;;;;;;;12.98;8.18;;;;;;;14.80;38.62;96002.75;10500294;28;20060;-87
2021/12/11 19:06:49;;;;;;;14.45;8.23;;;;;;;14.41;38.75;96001.28;10497220;28;20429;-89
2021/12/11 19:11:58;;;;;;;13.65;7.90;;;;;;;13.99;40.02;95997.59;10481694;28;20094;-85
2021/12/11 19:17:03;;;;;;;19.45;9.80;;;;;;;13.90;53.03;96007.25;10492395;28;20044;-81
2021/12/11 19:22:09;;;;;;;18.15;8.93;;;;;;;14.27;56.06;96008.13;10495035;28;20052;-82
2021/12/11 19:27:21;;;;;;;20.70;9.75;;;;;;;14.62;57.04;96014.38;10476993;28;20049;-83
2021/12/11 19:32:31;;;;;;;18.13;8.88;;;;;;;14.94;56.92;96022.69;10494330;28;20056;-82
2021/12/11 19:37:35;;;;;;;21.27;9.60;;;;;;;15.19;56.71;96020.53;10495953;28;20555;-84
2021/12/11 19:42:45;;;;;;;28.88;9.25;;;;;;;15.42;56.61;96025.50;10462226;28;20387;-85
2021/12/11 19:47:49;;;;;;;16.90;8.68;;;;;;;15.57;55.96;96030.63;10543109;28;20040;-83
2021/12/11 19:52:54;;;;;;;19.33;9.05;;;;;;;15.71;56.08;96039.31;10531015;28;20496;-85
2021/12/11 19:57:59;;;;;;;20.70;9.00;;;;;;;15.83;55.42;96036.22;10547172;28;20047;-82
2021/12/11 20:03:07;;;;;;;18.70;9.07;;;;;;;15.92;55.44;96051.53;10548180;28;20560;-81
2021/12/11 20:08:15;;;;;;;18.95;9.25;;;;;;;16.00;55.19;96063.56;10553236;28;20044;-80
2021/12/11 20:13:19;;;;;;;;;;;;;;;16.06;55.63;96068.00;10551327;28;20048;-83
2021/12/11 20:18:29;;;;;;;21.08;9.43;;;;;;;16.12;54.98;96072.47;10506199;28;19946;-85
2021/12/11 20:23:31;;;;;;;14.60;9.02;;;;;;;16.14;54.92;96075.66;10509537;28;20041;-83
2021/12/11 20:28:33;;;;;;;18.25;9.27;;;;;;;16.20;54.66;96083.75;10492627;28;20058;-83
2021/12/11 20:33:37;;;;;;;22.35;8.65;;;;;;;16.20;54.48;96092.34;10482781;28;20048;-91
2021/12/11 20:38:44;;;;;;;19.23;9.00;;;;;;;16.25;54.60;96102.19;10500895;28;20475;-83
2021/12/11 20:43:47;;;;;;;;;;;;;;;16.23;55.09;96105.00;10501378;28;20052;-82
2021/12/11 20:48:49;;;;;;;25.65;8.38;;;;;;;16.27;54.84;96115.81;10500236;28;19966;-81
2021/12/11 20:53:53;;;;;;;27.70;8.55;;;;;;;16.33;55.33;96115.84;10500700;28;20094;-82
2021/12/11 20:58:56;;;;;;;17.13;8.57;;;;;;;16.38;54.50;96128.31;10499627;28;20045;-78
2021/12/11 21:04:04;;;;;;;37.63;9.43;;;;;;;16.39;54.88;96131.75;10457774;28;20084;-78
2021/12/11 21:09:23;;;;;;;22.80;8.18;;;;;;;16.39;54.52;96129.94;10457967;28;20483;-80
2021/12/11 21:14:27;;;;;;;21.23;8.27;;;;;;;16.46;54.31;96137.78;10458019;28;20045;-77
2021/12/11 21:19:36;;;;;;;23.52;8.93;;;;;;;16.45;54.13;96136.19;10457610;28;20099;-79
2021/12/11 21:24:44;;;;;;;26.20;9.15;;;;;;;16.43;53.94;96140.75;10444389;28;20541;-79
2021/12/11 21:29:47;;;;;;;20.80;9.17;;;;;;;16.44;53.80;96137.16;10438067;28;20037;-80
2021/12/11 21:34:55;;;;;;;40.03;10.10;;;;;;;16.43;53.53;96152.00;10450255;28;20056;-80
2021/12/11 21:40:07;;;;;;;30.42;8.60;;;;;;;16.42;53.55;96158.22;10440720;28;20037;-77
2021/12/11 21:45:11;;;;;;;38.13;9.10;;;;;;;16.40;53.46;96165.41;10455728;28;20045;-80
2021/12/11 21:50:19;;;;;;;35.03;8.57;;;;;;;16.41;53.40;96171.41;10454552;28;20041;-81
2021/12/11 21:55:27;;;;;;;28.58;8.55;;;;;;;16.38;53.28;96180.41;10455306;28;20507;-81
2021/12/11 22:00:35;;;;;;;31.42;9.05;;;;;;;16.36;53.20;96190.22;10471974;28;20056;-80
2021/12/11 22:05:43;;;;;;;32.95;8.27;;;;;;;16.36;53.20;96192.84;10518738;28;20044;-81
2021/12/11 22:10:54;;;;;;;30.13;8.23;;;;;;;16.33;53.05;96188.78;10495593;28;20036;-81
2021/12/11 22:16:05;;;;;;;20.75;8.27;;;;;;;16.32;52.92;96199.41;10511044;28;20044;-80
2021/12/11 22:21:16;;;;;;;24.20;8.00;;;;;;;16.30;52.99;96198.78;10515178;28;20124;-81
2021/12/11 22:26:27;;;;;;;28.48;8.50;;;;;;;16.26;52.88;96194.97;10514909;28;20473;-80
2021/12/11 22:31:33;;;;;;;19.92;8.10;;;;;;;16.24;52.80;96199.56;10508713;28;20072;-79
2021/12/11 22:36:35;;;;;;;21.60;7.38;;;;;;;16.23;52.96;96193.53;10455992;28;20060;-80
2021/12/11 22:41:42;;;;;;;19.83;7.57;;;;;;;16.20;52.94;96193.91;10455102;28;20402;-80
2021/12/11 22:46:49;;;;;;;22.07;8.17;;;;;;;16.19;53.04;96201.91;10452886;28;20041;-81
2021/12/11 22:51:55;;;;;;;23.23;8.07;;;;;;;16.14;52.79;96213.69;10458957;28;20033;-81
2021/12/11 22:57:03;;;;;;;20.45;7.13;;;;;;;16.12;52.98;96210.47;10494621;28;20479;-81
2021/12/11 23:02:33;;;;;;;20.67;7.65;;;;;;;16.13;52.84;96208.72;10471172;28;20053;-81
2021/12/11 23:07:38;;;;;;;14.65;7.20;;;;;;;16.07;52.63;96210.25;10426746;28;20053;-80
2021/12/11 23:12:43;;;;;;;16.88;6.88;;;;;;;16.04;53.07;96200.22;10447093;28;20481;-80
2021/12/11 23:17:51;;;;;;;18.55;6.55;;;;;;;16.07;52.72;96204.25;10450455;28;20472;-81
2021/12/11 23:22:56;;;;;;;;;;;;;;;16.02;52.99;96207.41;10434476;28;20048;-80
2021/12/11 23:28:14;;;;;;;19.60;7.00;;;;;;;16.02;52.78;96209.19;10460407;28;20367;-79
2021/12/11 23:33:26;;;;;;;25.92;7.30;;;;;;;16.00;53.03;96221.59;10448781;28;20369;-80
2021/12/11 23:38:34;;;;;;;16.48;6.80;;;;;;;15.98;53.03;96221.00;10443754;28;20053;-78
2021/12/11 23:44:01;;;;;;;14.48;6.60;;;;;;;15.96;53.21;96229.78;10461090;28;20407;-79
2021/12/11 23:49:07;;;;;;;12.52;6.28;;;;;;;15.93;52.96;96222.34;10460902;28;20049;-80
2021/12/11 23:54:21;;;;;;;13.27;6.47;;;;;;;15.92;52.86;96225.94;10460999;28;20498;-79
2021/12/11 23:59:41;;;;;;;14.00;6.22;;;;;;;15.93;52.75;96224.94;10460668;28;20505;-78
